sensor_id;sensor_type;location;lat;lon;timestamp;P1;durP1;ratioP1;P2;durP2;ratioP2
80400;SDS011;69727;53.132;8.230;2024-03-02T00:02:12;13.63;;;5.93;;
80400;SDS011;69727;53.132;8.230;2024-03-02T00:04:39;13.40;;;7.00;;
80400;SDS011;69727;53.132;8.230;2024-03-02T00:07:04;13.60;;;6.68;;
80400;SDS011;69727;53.132;8.230;2024-03-02T00:09:31;11.40;;;6.22;;
80400;SDS011;69727;53.132;8.230;2024-03-02T00:11:57;15.73;;;6.45;;
80400;SDS011;69727;53.132;8.230;2024-03-02T00:14:24;11.57;;;6.18;;
80400;SDS011;69727;53.132;8.230;2024-03-02T00:16:50;13.15;;;5.93;;
80400;SDS011;69727;53.132;8.230;2024-03-02T00:19:16;12.35;;;6.25;;
80400;SDS011;69727;53.132;8.230;2024-03-02T00:21:42;12.05;;;5.80;;
80400;SDS011;69727;53.132;8.230;2024-03-02T00:24:12;11.93;;;6.13;;
80400;SDS011;69727;53.132;8.230;2024-03-02T00:26:47;10.85;;;5.82;;
80400;SDS011;69727;53.132;8.230;2024-03-02T00:29:13;11.15;;;5.68;;
80400;SDS011;69727;53.132;8.230;2024-03-02T00:31:41;15.45;;;6.63;;
80400;SDS011;69727;53.132;8.230;2024-03-02T00:34:07;12.60;;;5.57;;
80400;SDS011;69727;53.132;8.230;2024-03-02T00:36:32;12.57;;;6.30;;
80400;SDS011;69727;53.132;8.230;2024-03-02T00:38:58;10.68;;;5.53;;
80400;SDS011;69727;53.132;8.230;2024-03-02T00:41:25;11.32;;;5.63;;
80400;SDS011;69727;53.132;8.230;2024-03-02T00:43:57;11.20;;;5.38;;
80400;SDS011;69727;53.132;8.230;2024-03-02T00:46:26;12.25;;;5.68;;
80400;SDS011;69727;53.132;8.230;2024-03-02T00:48:55;13.07;;;5.53;;
80400;SDS011;69727;53.132;8.230;2024-03-02T00:51:23;10.68;;;5.30;;
80400;SDS011;69727;53.132;8.230;2024-03-02T00:53:51;12.10;;;5.70;;
80400;SDS011;69727;53.132;8.230;2024-03-02T00:56:23;11.63;;;5.07;;
80400;SDS011;69727;53.132;8.230;2024-03-02T00:58:49;10.45;;;5.18;;
80400;SDS011;69727;53.132;8.230;2024-03-02T01:01:15;12.30;;;5.50;;
80400;SDS011;69727;53.132;8.230;2024-03-02T01:03:41;12.77;;;6.35;;
80400;SDS011;69727;53.132;8.230;2024-03-02T01:06:07;11.27;;;5.45;;
80400;SDS011;69727;53.132;8.230;2024-03-02T01:08:34;11.90;;;5.28;;
80400;SDS011;69727;53.132;8.230;2024-03-02T01:11:02;12.93;;;5.85;;
80400;SDS011;69727;53.132;8.230;2024-03-02T01:13:28;11.32;;;5.43;;
80400;SDS011;69727;53.132;8.230;2024-03-02T01:15:54;11.00;;;5.47;;
80400;SDS011;69727;53.132;8.230;2024-03-02T01:18:20;10.57;;;5.50;;
80400;SDS011;69727;53.132;8.230;2024-03-02T01:20:47;10.85;;;5.70;;
80400;SDS011;69727;53.132;8.230;2024-03-02T01:23:12;9.18;;;5.05;;
80400;SDS011;69727;53.132;8.230;2024-03-02T01:25:38;11.27;;;5.28;;
80400;SDS011;69727;53.132;8.230;2024-03-02T01:28:03;11.60;;;5.13;;
80400;SDS011;69727;53.132;8.230;2024-03-02T01:30:29;11.57;;;5.47;;
80400;SDS011;69727;53.132;8.230;2024-03-02T01:32:55;9.37;;;5.00;;
80400;SDS011;69727;53.132;8.230;2024-03-02T01:35:20;12.90;;;5.80;;
80400;SDS011;69727;53.132;8.230;2024-03-02T01:37:46;11.30;;;5.57;;
80400;SDS011;69727;53.132;8.230;2024-03-02T01:40:11;12.63;;;5.85;;
80400;SDS011;69727;53.132;8.230;2024-03-02T01:42:37;12.88;;;6.00;;
80400;SDS011;69727;53.132;8.230;2024-03-02T01:45:07;11.27;;;5.18;;
80400;SDS011;69727;53.132;8.230;2024-03-02T01:47:33;11.20;;;5.53;;
80400;SDS011;69727;53.132;8.230;2024-03-02T01:49:58;12.65;;;6.22;;
80400;SDS011;69727;53.132;8.230;2024-03-02T01:52:24;11.70;;;6.10;;
80400;SDS011;69727;53.132;8.230;2024-03-02T01:54:50;14.27;;;5.78;;
80400;SDS011;69727;53.132;8.230;2024-03-02T01:57:15;11.10;;;5.50;;
80400;SDS011;69727;53.132;8.230;2024-03-02T01:59:41;9.10;;;4.55;;
80400;SDS011;69727;53.132;8.230;2024-03-02T02:02:07;10.60;;;5.60;;
80400;SDS011;69727;53.132;8.230;2024-03-02T02:04:32;10.68;;;4.95;;
80400;SDS011;69727;53.132;8.230;2024-03-02T02:06:58;12.32;;;5.90;;
80400;SDS011;69727;53.132;8.230;2024-03-02T02:09:24;12.45;;;6.07;;
80400;SDS011;69727;53.132;8.230;2024-03-02T02:11:50;11.80;;;5.80;;
80400;SDS011;69727;53.132;8.230;2024-03-02T02:14:19;9.70;;;4.55;;
80400;SDS011;69727;53.132;8.230;2024-03-02T02:16:44;10.73;;;5.40;;
80400;SDS011;69727;53.132;8.230;2024-03-02T02:19:09;10.85;;;5.18;;
80400;SDS011;69727;53.132;8.230;2024-03-02T02:21:35;11.25;;;5.47;;
80400;SDS011;69727;53.132;8.230;2024-03-02T02:24:01;11.43;;;5.30;;
80400;SDS011;69727;53.132;8.230;2024-03-02T02:26:28;9.55;;;4.03;;
80400;SDS011;69727;53.132;8.230;2024-03-02T02:28:57;9.50;;;4.57;;
80400;SDS011;69727;53.132;8.230;2024-03-02T02:31:22;9.45;;;5.13;;
80400;SDS011;69727;53.132;8.230;2024-03-02T02:33:48;11.77;;;4.80;;
80400;SDS011;69727;53.132;8.230;2024-03-02T02:36:13;10.77;;;4.57;;
80400;SDS011;69727;53.132;8.230;2024-03-02T02:38:40;11.60;;;4.90;;
80400;SDS011;69727;53.132;8.230;2024-03-02T02:41:09;11.18;;;4.70;;
80400;SDS011;69727;53.132;8.230;2024-03-02T02:43:34;11.65;;;4.90;;
80400;SDS011;69727;53.132;8.230;2024-03-02T02:45:59;11.20;;;5.05;;
80400;SDS011;69727;53.132;8.230;2024-03-02T02:48:25;10.43;;;5.67;;
80400;SDS011;69727;53.132;8.230;2024-03-02T02:50:50;11.68;;;5.22;;
80400;SDS011;69727;53.132;8.230;2024-03-02T02:53:16;9.85;;;4.85;;
80400;SDS011;69727;53.132;8.230;2024-03-02T02:55:41;11.52;;;5.70;;
80400;SDS011;69727;53.132;8.230;2024-03-02T02:58:11;11.68;;;5.13;;
80400;SDS011;69727;53.132;8.230;2024-03-02T03:00:36;9.15;;;4.32;;
80400;SDS011;69727;53.132;8.230;2024-03-02T03:03:02;11.43;;;5.10;;
80400;SDS011;69727;53.132;8.230;2024-03-02T03:05:27;10.55;;;5.30;;
80400;SDS011;69727;53.132;8.230;2024-03-02T03:07:53;10.07;;;5.35;;
80400;SDS011;69727;53.132;8.230;2024-03-02T03:10:19;12.45;;;5.57;;
80400;SDS011;69727;53.132;8.230;2024-03-02T03:12:47;11.90;;;4.85;;
80400;SDS011;69727;53.132;8.230;2024-03-02T03:15:12;11.35;;;5.57;;
80400;SDS011;69727;53.132;8.230;2024-03-02T03:17:38;9.38;;;4.65;;
80400;SDS011;69727;53.132;8.230;2024-03-02T03:20:03;11.35;;;5.38;;
80400;SDS011;69727;53.132;8.230;2024-03-02T03:22:30;10.93;;;5.22;;
80400;SDS011;69727;53.132;8.230;2024-03-02T03:25:00;10.93;;;4.95;;
80400;SDS011;69727;53.132;8.230;2024-03-02T03:27:25;10.90;;;5.40;;
80400;SDS011;69727;53.132;8.230;2024-03-02T03:29:51;11.32;;;5.57;;
80400;SDS011;69727;53.132;8.230;2024-03-02T03:32:17;10.38;;;5.18;;
80400;SDS011;69727;53.132;8.230;2024-03-02T03:34:42;10.75;;;5.35;;
80400;SDS011;69727;53.132;8.230;2024-03-02T03:37:08;12.18;;;5.50;;
80400;SDS011;69727;53.132;8.230;2024-03-02T03:39:34;11.23;;;5.25;;
80400;SDS011;69727;53.132;8.230;2024-03-02T03:42:03;13.10;;;6.53;;
80400;SDS011;69727;53.132;8.230;2024-03-02T03:44:29;10.82;;;5.28;;
80400;SDS011;69727;53.132;8.230;2024-03-02T03:46:54;11.32;;;5.80;;
80400;SDS011;69727;53.132;8.230;2024-03-02T03:49:20;10.30;;;5.43;;
80400;SDS011;69727;53.132;8.230;2024-03-02T03:51:45;12.20;;;5.45;;
80400;SDS011;69727;53.132;8.230;2024-03-02T03:54:11;10.98;;;5.18;;
80400;SDS011;69727;53.132;8.230;2024-03-02T03:56:36;11.75;;;5.45;;
80400;SDS011;69727;53.132;8.230;2024-03-02T03:59:02;10.50;;;5.32;;
80400;SDS011;69727;53.132;8.230;2024-03-02T04:01:28;12.52;;;5.28;;
80400;SDS011;69727;53.132;8.230;2024-03-02T04:03:53;11.27;;;5.55;;
80400;SDS011;69727;53.132;8.230;2024-03-02T04:06:19;11.80;;;5.55;;
80400;SDS011;69727;53.132;8.230;2024-03-02T04:08:44;11.97;;;6.17;;
80400;SDS011;69727;53.132;8.230;2024-03-02T04:11:10;11.60;;;5.37;;
80400;SDS011;69727;53.132;8.230;2024-03-02T04:13:35;12.87;;;5.63;;
80400;SDS011;69727;53.132;8.230;2024-03-02T04:16:00;12.20;;;5.80;;
80400;SDS011;69727;53.132;8.230;2024-03-02T04:18:26;10.98;;;5.15;;
80400;SDS011;69727;53.132;8.230;2024-03-02T04:20:51;13.73;;;5.57;;
80400;SDS011;69727;53.132;8.230;2024-03-02T04:23:17;10.80;;;5.55;;
80400;SDS011;69727;53.132;8.230;2024-03-02T04:25:42;13.90;;;6.43;;
80400;SDS011;69727;53.132;8.230;2024-03-02T04:28:07;11.20;;;5.53;;
80400;SDS011;69727;53.132;8.230;2024-03-02T04:30:33;11.15;;;5.43;;
80400;SDS011;69727;53.132;8.230;2024-03-02T04:32:58;12.90;;;6.25;;
80400;SDS011;69727;53.132;8.230;2024-03-02T04:35:24;12.63;;;5.80;;
80400;SDS011;69727;53.132;8.230;2024-03-02T04:37:50;12.45;;;6.13;;
80400;SDS011;69727;53.132;8.230;2024-03-02T04:40:16;12.82;;;5.80;;
80400;SDS011;69727;53.132;8.230;2024-03-02T04:42:41;11.93;;;5.68;;
80400;SDS011;69727;53.132;8.230;2024-03-02T04:45:07;10.87;;;5.57;;
80400;SDS011;69727;53.132;8.230;2024-03-02T04:47:32;11.00;;;5.55;;
80400;SDS011;69727;53.132;8.230;2024-03-02T04:49:58;13.18;;;5.63;;
80400;SDS011;69727;53.132;8.230;2024-03-02T04:52:23;11.63;;;5.88;;
80400;SDS011;69727;53.132;8.230;2024-03-02T04:54:48;13.53;;;6.17;;
80400;SDS011;69727;53.132;8.230;2024-03-02T04:57:32;12.88;;;5.57;;
80400;SDS011;69727;53.132;8.230;2024-03-02T04:59:58;12.57;;;5.80;;
80400;SDS011;69727;53.132;8.230;2024-03-02T05:02:23;12.43;;;5.80;;
80400;SDS011;69727;53.132;8.230;2024-03-02T05:04:49;12.07;;;6.13;;
80400;SDS011;69727;53.132;8.230;2024-03-02T05:07:14;12.57;;;5.90;;
80400;SDS011;69727;53.132;8.230;2024-03-02T05:09:40;11.38;;;5.40;;
80400;SDS011;69727;53.132;8.230;2024-03-02T05:12:05;10.02;;;5.00;;
80400;SDS011;69727;53.132;8.230;2024-03-02T05:14:36;13.27;;;6.35;;
80400;SDS011;69727;53.132;8.230;2024-03-02T05:17:02;12.75;;;5.85;;
80400;SDS011;69727;53.132;8.230;2024-03-02T05:19:28;11.48;;;5.82;;
80400;SDS011;69727;53.132;8.230;2024-03-02T05:21:53;11.57;;;5.60;;
80400;SDS011;69727;53.132;8.230;2024-03-02T05:24:18;13.10;;;5.53;;
80400;SDS011;69727;53.132;8.230;2024-03-02T05:26:44;13.20;;;6.23;;
80400;SDS011;69727;53.132;8.230;2024-03-02T05:29:09;12.68;;;6.30;;
80400;SDS011;69727;53.132;8.230;2024-03-02T05:31:34;13.43;;;6.07;;
80400;SDS011;69727;53.132;8.230;2024-03-02T05:34:00;13.98;;;6.00;;
80400;SDS011;69727;53.132;8.230;2024-03-02T05:36:25;14.50;;;5.57;;
80400;SDS011;69727;53.132;8.230;2024-03-02T05:38:51;12.57;;;6.10;;
80400;SDS011;69727;53.132;8.230;2024-03-02T05:41:16;12.02;;;6.35;;
80400;SDS011;69727;53.132;8.230;2024-03-02T05:43:42;11.80;;;5.68;;
80400;SDS011;69727;53.132;8.230;2024-03-02T05:46:07;11.97;;;6.13;;
80400;SDS011;69727;53.132;8.230;2024-03-02T05:48:32;14.03;;;6.67;;
80400;SDS011;69727;53.132;8.230;2024-03-02T05:50:58;13.23;;;6.20;;
80400;SDS011;69727;53.132;8.230;2024-03-02T05:53:24;14.48;;;6.45;;
80400;SDS011;69727;53.132;8.230;2024-03-02T05:55:50;13.80;;;6.78;;
80400;SDS011;69727;53.132;8.230;2024-03-02T05:58:20;15.38;;;6.75;;
80400;SDS011;69727;53.132;8.230;2024-03-02T06:00:57;14.73;;;5.88;;
80400;SDS011;69727;53.132;8.230;2024-03-02T06:03:23;15.02;;;7.78;;
80400;SDS011;69727;53.132;8.230;2024-03-02T06:05:48;14.63;;;6.73;;
80400;SDS011;69727;53.132;8.230;2024-03-02T06:08:14;13.35;;;6.65;;
80400;SDS011;69727;53.132;8.230;2024-03-02T06:10:39;16.92;;;6.07;;
80400;SDS011;69727;53.132;8.230;2024-03-02T06:13:05;13.45;;;5.72;;
80400;SDS011;69727;53.132;8.230;2024-03-02T06:15:30;10.98;;;5.00;;
80400;SDS011;69727;53.132;8.230;2024-03-02T06:17:56;13.73;;;6.30;;
80400;SDS011;69727;53.132;8.230;2024-03-02T06:20:21;10.43;;;5.07;;
80400;SDS011;69727;53.132;8.230;2024-03-02T06:22:47;13.13;;;5.80;;
80400;SDS011;69727;53.132;8.230;2024-03-02T06:25:12;11.60;;;5.70;;
80400;SDS011;69727;53.132;8.230;2024-03-02T06:27:38;11.48;;;5.93;;
80400;SDS011;69727;53.132;8.230;2024-03-02T06:30:04;14.20;;;6.03;;
80400;SDS011;69727;53.132;8.230;2024-03-02T06:32:29;12.15;;;6.50;;
80400;SDS011;69727;53.132;8.230;2024-03-02T06:34:55;13.60;;;6.30;;
80400;SDS011;69727;53.132;8.230;2024-03-02T06:37:20;12.87;;;6.00;;
80400;SDS011;69727;53.132;8.230;2024-03-02T06:39:46;14.73;;;6.03;;
80400;SDS011;69727;53.132;8.230;2024-03-02T06:42:11;13.32;;;6.25;;
80400;SDS011;69727;53.132;8.230;2024-03-02T06:44:37;12.63;;;6.50;;
80400;SDS011;69727;53.132;8.230;2024-03-02T06:47:02;12.60;;;6.10;;
80400;SDS011;69727;53.132;8.230;2024-03-02T06:49:28;12.60;;;6.28;;
80400;SDS011;69727;53.132;8.230;2024-03-02T06:51:53;14.00;;;6.67;;
80400;SDS011;69727;53.132;8.230;2024-03-02T06:54:18;13.70;;;6.47;;
80400;SDS011;69727;53.132;8.230;2024-03-02T06:56:44;12.30;;;6.40;;
80400;SDS011;69727;53.132;8.230;2024-03-02T06:59:09;12.33;;;5.73;;
80400;SDS011;69727;53.132;8.230;2024-03-02T07:01:34;11.33;;;6.20;;
80400;SDS011;69727;53.132;8.230;2024-03-02T07:04:00;14.60;;;6.82;;
80400;SDS011;69727;53.132;8.230;2024-03-02T07:06:25;14.57;;;6.70;;
80400;SDS011;69727;53.132;8.230;2024-03-02T07:08:51;14.25;;;6.63;;
80400;SDS011;69727;53.132;8.230;2024-03-02T07:11:16;14.35;;;6.85;;
80400;SDS011;69727;53.132;8.230;2024-03-02T07:13:41;14.15;;;6.13;;
80400;SDS011;69727;53.132;8.230;2024-03-02T07:16:07;13.70;;;6.72;;
80400;SDS011;69727;53.132;8.230;2024-03-02T07:18:35;13.75;;;6.55;;
80400;SDS011;69727;53.132;8.230;2024-03-02T07:21:09;14.00;;;7.13;;
80400;SDS011;69727;53.132;8.230;2024-03-02T07:23:35;11.20;;;6.15;;
80400;SDS011;69727;53.132;8.230;2024-03-02T07:26:01;12.32;;;6.53;;
80400;SDS011;69727;53.132;8.230;2024-03-02T07:28:28;15.73;;;7.13;;
80400;SDS011;69727;53.132;8.230;2024-03-02T07:31:00;17.45;;;7.28;;
80400;SDS011;69727;53.132;8.230;2024-03-02T07:33:29;14.32;;;5.97;;
80400;SDS011;69727;53.132;8.230;2024-03-02T07:35:56;12.93;;;6.85;;
80400;SDS011;69727;53.132;8.230;2024-03-02T07:38:22;14.57;;;7.03;;
80400;SDS011;69727;53.132;8.230;2024-03-02T07:40:48;16.20;;;7.53;;
80400;SDS011;69727;53.132;8.230;2024-03-02T07:43:18;13.80;;;7.20;;
80400;SDS011;69727;53.132;8.230;2024-03-02T07:45:47;12.75;;;6.60;;
80400;SDS011;69727;53.132;8.230;2024-03-02T07:48:13;17.58;;;7.53;;
80400;SDS011;69727;53.132;8.230;2024-03-02T07:50:39;15.30;;;7.65;;
80400;SDS011;69727;53.132;8.230;2024-03-02T07:53:04;13.55;;;6.80;;
80400;SDS011;69727;53.132;8.230;2024-03-02T07:55:30;15.50;;;6.72;;
80400;SDS011;69727;53.132;8.230;2024-03-02T07:57:57;15.68;;;7.20;;
80400;SDS011;69727;53.132;8.230;2024-03-02T08:00:23;15.38;;;7.18;;
80400;SDS011;69727;53.132;8.230;2024-03-02T08:02:49;17.27;;;8.07;;
80400;SDS011;69727;53.132;8.230;2024-03-02T08:05:18;15.10;;;7.45;;
80400;SDS011;69727;53.132;8.230;2024-03-02T08:07:44;15.60;;;7.07;;
80400;SDS011;69727;53.132;8.230;2024-03-02T08:10:10;16.95;;;8.35;;
80400;SDS011;69727;53.132;8.230;2024-03-02T08:12:36;15.23;;;7.70;;
80400;SDS011;69727;53.132;8.230;2024-03-02T08:15:02;15.52;;;7.45;;
80400;SDS011;69727;53.132;8.230;2024-03-02T08:17:27;15.90;;;7.28;;
80400;SDS011;69727;53.132;8.230;2024-03-02T08:19:53;17.55;;;8.55;;
80400;SDS011;69727;53.132;8.230;2024-03-02T08:22:19;17.15;;;7.70;;
80400;SDS011;69727;53.132;8.230;2024-03-02T08:24:44;16.60;;;7.82;;
80400;SDS011;69727;53.132;8.230;2024-03-02T08:27:11;17.48;;;7.75;;
80400;SDS011;69727;53.132;8.230;2024-03-02T08:29:37;15.82;;;7.43;;
80400;SDS011;69727;53.132;8.230;2024-03-02T08:32:02;13.98;;;6.90;;
80400;SDS011;69727;53.132;8.230;2024-03-02T08:34:28;15.63;;;7.65;;
80400;SDS011;69727;53.132;8.230;2024-03-02T08:36:53;16.87;;;7.40;;
80400;SDS011;69727;53.132;8.230;2024-03-02T08:39:19;14.07;;;6.70;;
80400;SDS011;69727;53.132;8.230;2024-03-02T08:41:46;14.38;;;6.85;;
80400;SDS011;69727;53.132;8.230;2024-03-02T08:44:12;15.15;;;6.07;;
80400;SDS011;69727;53.132;8.230;2024-03-02T08:46:39;13.23;;;6.70;;
80400;SDS011;69727;53.132;8.230;2024-03-02T08:49:05;17.52;;;7.60;;
80400;SDS011;69727;53.132;8.230;2024-03-02T08:51:31;13.75;;;6.85;;
80400;SDS011;69727;53.132;8.230;2024-03-02T08:53:57;13.10;;;7.00;;
80400;SDS011;69727;53.132;8.230;2024-03-02T08:56:23;13.93;;;7.35;;
80400;SDS011;69727;53.132;8.230;2024-03-02T08:58:49;14.00;;;6.63;;
80400;SDS011;69727;53.132;8.230;2024-03-02T09:01:15;11.38;;;5.90;;
80400;SDS011;69727;53.132;8.230;2024-03-02T09:03:42;15.80;;;6.93;;
80400;SDS011;69727;53.132;8.230;2024-03-02T09:06:11;12.80;;;6.70;;
80400;SDS011;69727;53.132;8.230;2024-03-02T09:08:37;10.52;;;5.15;;
80400;SDS011;69727;53.132;8.230;2024-03-02T09:11:04;13.18;;;6.25;;
80400;SDS011;69727;53.132;8.230;2024-03-02T09:13:30;12.95;;;6.47;;
80400;SDS011;69727;53.132;8.230;2024-03-02T09:15:56;9.00;;;5.32;;
80400;SDS011;69727;53.132;8.230;2024-03-02T09:18:22;11.00;;;5.40;;
80400;SDS011;69727;53.132;8.230;2024-03-02T09:20:47;13.52;;;6.07;;
80400;SDS011;69727;53.132;8.230;2024-03-02T09:23:13;11.93;;;5.20;;
80400;SDS011;69727;53.132;8.230;2024-03-02T09:25:38;9.75;;;4.80;;
80400;SDS011;69727;53.132;8.230;2024-03-02T09:28:03;9.67;;;4.93;;
80400;SDS011;69727;53.132;8.230;2024-03-02T09:30:29;11.48;;;5.05;;
80400;SDS011;69727;53.132;8.230;2024-03-02T09:32:54;11.13;;;5.33;;
80400;SDS011;69727;53.132;8.230;2024-03-02T09:35:20;10.13;;;5.23;;
80400;SDS011;69727;53.132;8.230;2024-03-02T09:37:45;12.53;;;5.03;;
80400;SDS011;69727;53.132;8.230;2024-03-02T09:40:11;9.25;;;5.03;;
80400;SDS011;69727;53.132;8.230;2024-03-02T09:42:38;12.73;;;4.93;;
80400;SDS011;69727;53.132;8.230;2024-03-02T09:45:04;9.95;;;4.60;;
80400;SDS011;69727;53.132;8.230;2024-03-02T09:47:30;9.60;;;4.90;;
80400;SDS011;69727;53.132;8.230;2024-03-02T09:49:56;9.93;;;4.22;;
80400;SDS011;69727;53.132;8.230;2024-03-02T09:52:22;9.65;;;4.90;;
80400;SDS011;69727;53.132;8.230;2024-03-02T09:54:48;10.52;;;4.95;;
80400;SDS011;69727;53.132;8.230;2024-03-02T09:57:14;9.00;;;4.35;;
80400;SDS011;69727;53.132;8.230;2024-03-02T09:59:39;10.57;;;4.63;;
80400;SDS011;69727;53.132;8.230;2024-03-02T10:02:05;8.70;;;4.40;;
80400;SDS011;69727;53.132;8.230;2024-03-02T10:04:32;7.90;;;4.20;;
80400;SDS011;69727;53.132;8.230;2024-03-02T10:09:38;11.20;;;4.07;;
80400;SDS011;69727;53.132;8.230;2024-03-02T10:12:05;7.72;;;3.95;;
80400;SDS011;69727;53.132;8.230;2024-03-02T10:14:32;7.45;;;3.88;;
80400;SDS011;69727;53.132;8.230;2024-03-02T10:17:04;9.07;;;3.80;;
80400;SDS011;69727;53.132;8.230;2024-03-02T10:19:31;7.22;;;3.55;;
80400;SDS011;69727;53.132;8.230;2024-03-02T10:22:01;8.85;;;3.50;;
80400;SDS011;69727;53.132;8.230;2024-03-02T10:24:28;7.88;;;3.30;;
80400;SDS011;69727;53.132;8.230;2024-03-02T10:27:02;7.00;;;3.20;;
80400;SDS011;69727;53.132;8.230;2024-03-02T10:29:32;8.30;;;3.40;;
80400;SDS011;69727;53.132;8.230;2024-03-02T10:31:57;8.35;;;3.65;;
80400;SDS011;69727;53.132;8.230;2024-03-02T10:34:24;6.93;;;3.55;;
80400;SDS011;69727;53.132;8.230;2024-03-02T10:36:49;7.68;;;3.47;;
80400;SDS011;69727;53.132;8.230;2024-03-02T10:39:15;6.47;;;3.03;;
80400;SDS011;69727;53.132;8.230;2024-03-02T10:41:40;6.45;;;3.28;;
80400;SDS011;69727;53.132;8.230;2024-03-02T10:44:06;8.60;;;3.83;;
80400;SDS011;69727;53.132;8.230;2024-03-02T10:46:34;5.88;;;2.97;;
80400;SDS011;69727;53.132;8.230;2024-03-02T10:49:02;7.07;;;3.05;;
80400;SDS011;69727;53.132;8.230;2024-03-02T10:51:30;6.80;;;3.10;;
80400;SDS011;69727;53.132;8.230;2024-03-02T10:53:57;5.78;;;2.92;;
80400;SDS011;69727;53.132;8.230;2024-03-02T10:59:13;6.53;;;2.95;;
80400;SDS011;69727;53.132;8.230;2024-03-02T11:01:47;5.95;;;2.60;;
80400;SDS011;69727;53.132;8.230;2024-03-02T11:04:15;5.03;;;2.78;;
80400;SDS011;69727;53.132;8.230;2024-03-02T11:06:48;14.55;;;3.38;;
80400;SDS011;69727;53.132;8.230;2024-03-02T11:09:14;5.43;;;2.65;;
80400;SDS011;69727;53.132;8.230;2024-03-02T11:11:42;5.90;;;2.60;;
80400;SDS011;69727;53.132;8.230;2024-03-02T11:14:13;7.32;;;3.05;;
80400;SDS011;69727;53.132;8.230;2024-03-02T11:16:41;7.30;;;2.47;;
80400;SDS011;69727;53.132;8.230;2024-03-02T11:19:09;6.45;;;2.72;;
80400;SDS011;69727;53.132;8.230;2024-03-02T11:21:37;6.50;;;2.75;;
80400;SDS011;69727;53.132;8.230;2024-03-02T11:26:50;6.75;;;2.80;;
80400;SDS011;69727;53.132;8.230;2024-03-02T11:32:00;6.93;;;2.65;;
80400;SDS011;69727;53.132;8.230;2024-03-02T11:34:30;6.07;;;2.78;;
80400;SDS011;69727;53.132;8.230;2024-03-02T11:37:05;5.53;;;2.80;;
80400;SDS011;69727;53.132;8.230;2024-03-02T11:39:31;5.80;;;2.90;;
80400;SDS011;69727;53.132;8.230;2024-03-02T11:41:57;5.50;;;2.88;;
80400;SDS011;69727;53.132;8.230;2024-03-02T11:44:26;11.65;;;3.97;;
80400;SDS011;69727;53.132;8.230;2024-03-02T11:46:59;6.10;;;2.88;;
80400;SDS011;69727;53.132;8.230;2024-03-02T11:49:46;6.88;;;3.22;;
80400;SDS011;69727;53.132;8.230;2024-03-02T11:52:15;6.80;;;3.15;;
80400;SDS011;69727;53.132;8.230;2024-03-02T11:54:45;7.88;;;3.28;;
80400;SDS011;69727;53.132;8.230;2024-03-02T11:57:12;8.00;;;3.47;;
80400;SDS011;69727;53.132;8.230;2024-03-02T11:59:40;7.80;;;3.63;;
80400;SDS011;69727;53.132;8.230;2024-03-02T12:02:06;7.40;;;3.83;;
80400;SDS011;69727;53.132;8.230;2024-03-02T12:04:34;6.30;;;3.20;;
80400;SDS011;69727;53.132;8.230;2024-03-02T12:07:04;7.10;;;3.50;;
80400;SDS011;69727;53.132;8.230;2024-03-02T12:09:30;7.93;;;3.75;;
80400;SDS011;69727;53.132;8.230;2024-03-02T12:12:06;6.28;;;3.25;;
80400;SDS011;69727;53.132;8.230;2024-03-02T12:14:36;6.40;;;3.63;;
80400;SDS011;69727;53.132;8.230;2024-03-02T12:17:03;6.88;;;3.90;;
80400;SDS011;69727;53.132;8.230;2024-03-02T12:19:29;6.65;;;3.38;;
80400;SDS011;69727;53.132;8.230;2024-03-02T12:21:59;6.90;;;3.30;;
80400;SDS011;69727;53.132;8.230;2024-03-02T12:24:28;7.60;;;3.60;;
80400;SDS011;69727;53.132;8.230;2024-03-02T12:26:55;7.97;;;3.65;;
80400;SDS011;69727;53.132;8.230;2024-03-02T12:29:20;7.03;;;3.80;;
80400;SDS011;69727;53.132;8.230;2024-03-02T12:31:52;7.30;;;3.60;;
80400;SDS011;69727;53.132;8.230;2024-03-02T12:34:21;6.88;;;3.58;;
80400;SDS011;69727;53.132;8.230;2024-03-02T12:36:47;7.40;;;3.40;;
80400;SDS011;69727;53.132;8.230;2024-03-02T12:39:17;6.80;;;3.35;;
80400;SDS011;69727;53.132;8.230;2024-03-02T12:41:43;7.78;;;3.08;;
80400;SDS011;69727;53.132;8.230;2024-03-02T12:44:08;5.15;;;2.88;;
80400;SDS011;69727;53.132;8.230;2024-03-02T12:46:34;7.53;;;3.30;;
80400;SDS011;69727;53.132;8.230;2024-03-02T12:49:14;5.82;;;3.13;;
80400;SDS011;69727;53.132;8.230;2024-03-02T12:51:43;6.38;;;3.30;;
80400;SDS011;69727;53.132;8.230;2024-03-02T12:54:11;7.10;;;2.78;;
80400;SDS011;69727;53.132;8.230;2024-03-02T12:56:37;5.70;;;2.80;;
80400;SDS011;69727;53.132;8.230;2024-03-02T12:59:06;5.10;;;2.50;;
80400;SDS011;69727;53.132;8.230;2024-03-02T13:01:31;5.63;;;2.88;;
80400;SDS011;69727;53.132;8.230;2024-03-02T13:03:57;5.65;;;2.92;;
80400;SDS011;69727;53.132;8.230;2024-03-02T13:06:23;6.05;;;2.65;;
80400;SDS011;69727;53.132;8.230;2024-03-02T13:08:52;5.30;;;2.60;;
80400;SDS011;69727;53.132;8.230;2024-03-02T13:11:17;5.78;;;2.40;;
80400;SDS011;69727;53.132;8.230;2024-03-02T13:13:43;5.82;;;2.90;;
80400;SDS011;69727;53.132;8.230;2024-03-02T13:16:09;5.38;;;2.78;;
80400;SDS011;69727;53.132;8.230;2024-03-02T13:18:35;5.30;;;2.55;;
80400;SDS011;69727;53.132;8.230;2024-03-02T13:21:01;5.95;;;2.65;;
80400;SDS011;69727;53.132;8.230;2024-03-02T13:23:26;6.55;;;3.05;;
80400;SDS011;69727;53.132;8.230;2024-03-02T13:25:52;5.25;;;2.55;;
80400;SDS011;69727;53.132;8.230;2024-03-02T13:28:17;6.80;;;2.90;;
80400;SDS011;69727;53.132;8.230;2024-03-02T13:30:43;5.82;;;2.55;;
80400;SDS011;69727;53.132;8.230;2024-03-02T13:33:08;6.13;;;2.88;;
80400;SDS011;69727;53.132;8.230;2024-03-02T13:35:33;4.80;;;2.47;;
80400;SDS011;69727;53.132;8.230;2024-03-02T13:37:59;4.80;;;2.57;;
80400;SDS011;69727;53.132;8.230;2024-03-02T13:40:24;6.32;;;2.60;;
80400;SDS011;69727;53.132;8.230;2024-03-02T13:42:50;7.15;;;2.72;;
80400;SDS011;69727;53.132;8.230;2024-03-02T13:45:17;6.47;;;3.22;;
80400;SDS011;69727;53.132;8.230;2024-03-02T13:47:43;6.88;;;3.13;;
80400;SDS011;69727;53.132;8.230;2024-03-02T13:50:09;8.20;;;3.17;;
80400;SDS011;69727;53.132;8.230;2024-03-02T13:52:34;5.68;;;2.92;;
80400;SDS011;69727;53.132;8.230;2024-03-02T13:55:00;9.05;;;3.10;;
80400;SDS011;69727;53.132;8.230;2024-03-02T13:57:25;6.83;;;3.20;;
80400;SDS011;69727;53.132;8.230;2024-03-02T13:59:50;7.15;;;3.50;;
80400;SDS011;69727;53.132;8.230;2024-03-02T14:02:17;6.13;;;3.17;;
80400;SDS011;69727;53.132;8.230;2024-03-02T14:04:42;6.38;;;3.25;;
80400;SDS011;69727;53.132;8.230;2024-03-02T14:07:08;6.55;;;3.30;;
80400;SDS011;69727;53.132;8.230;2024-03-02T14:09:34;5.93;;;2.95;;
80400;SDS011;69727;53.132;8.230;2024-03-02T14:11:59;5.25;;;2.85;;
80400;SDS011;69727;53.132;8.230;2024-03-02T14:14:28;6.57;;;3.30;;
80400;SDS011;69727;53.132;8.230;2024-03-02T14:16:57;6.85;;;3.38;;
80400;SDS011;69727;53.132;8.230;2024-03-02T14:19:25;6.90;;;3.05;;
80400;SDS011;69727;53.132;8.230;2024-03-02T14:21:51;7.57;;;3.70;;
80400;SDS011;69727;53.132;8.230;2024-03-02T14:24:16;6.78;;;3.53;;
80400;SDS011;69727;53.132;8.230;2024-03-02T14:26:42;7.45;;;3.47;;
80400;SDS011;69727;53.132;8.230;2024-03-02T14:29:07;8.20;;;3.70;;
80400;SDS011;69727;53.132;8.230;2024-03-02T14:31:33;6.78;;;3.58;;
80400;SDS011;69727;53.132;8.230;2024-03-02T14:33:58;7.78;;;3.92;;
80400;SDS011;69727;53.132;8.230;2024-03-02T14:36:25;7.75;;;3.75;;
80400;SDS011;69727;53.132;8.230;2024-03-02T14:38:52;6.55;;;3.70;;
80400;SDS011;69727;53.132;8.230;2024-03-02T14:41:18;7.40;;;3.85;;
80400;SDS011;69727;53.132;8.230;2024-03-02T14:43:44;8.45;;;4.03;;
80400;SDS011;69727;53.132;8.230;2024-03-02T14:46:09;9.45;;;4.55;;